Charlottesville (CHO/KCHO)

Map

Destinations

Information

Location
Charlottesville, VA
Local Time
19:43 / 7:43 pm
GMT Time
23:43 / 11:43 pm
Gates
Unassigned
No FAA reported delays
METAR KCHO 232253Z 00000KT 10SM CLR 27/16 A3008 RMK AO2 SLP179 T02670161
TAF KCHO 231720Z 2318/2418 04005KT P6SM SKC FM240600 00000KT 4SM BR SKC FM241200 00000KT P6SM FEW250